Time,TemperatureF,DewpointF,PressureIn,WindDirection,WindDirectionDegrees,WindSpeedMPH,WindSpeedGustMPH,Humidity,HourlyPrecipIn,Conditions,Clouds,dailyrainin,SolarRadiationWatts/m^2,SoftwareType,DateUTC
2014-07-11 00:01:00,75.3,72.0,30.12,SW,229,0.0,0.0,88,0.00,,,0.00,0,weatherlink.com 1.10,2014-07-11 04:01:00,
2014-07-11 00:16:00,75.2,72.0,30.11,SW,229,0.0,0.0,88,0.00,,,0.00,0,weatherlink.com 1.10,2014-07-11 04:16:00,
2014-07-11 00:31:00,75.2,72.0,30.11,SW,229,0.0,0.0,88,0.00,,,0.00,0,weatherlink.com 1.10,2014-07-11 04:31:00,
2014-07-11 00:46:00,75.0,71.0,30.10,SW,229,0.0,0.0,88,0.00,,,0.00,0,weatherlink.com 1.10,2014-07-11 04:46:00,
2014-07-11 01:01:00,74.6,71.0,30.09,SW,229,0.0,0.0,88,0.00,,,0.00,0,weatherlink.com 1.10,2014-07-11 05:01:00,
2014-07-11 01:16:00,74.4,71.0,30.09,SW,229,0.0,0.0,88,0.00,,,0.00,0,weatherlink.com 1.10,2014-07-11 05:16:00,
2014-07-11 01:31:00,74.5,71.0,30.09,SW,229,0.0,0.0,88,0.00,,,0.00,0,weatherlink.com 1.10,2014-07-11 05:31:00,
2014-07-11 01:46:00,74.5,71.0,30.08,SW,229,0.0,0.0,88,0.00,,,0.00,0,weatherlink.com 1.10,2014-07-11 05:46:00,
2014-07-11 02:01:00,74.6,71.0,30.08,SW,229,0.0,0.0,88,0.00,,,0.00,0,weatherlink.com 1.10,2014-07-11 06:01:00,
2014-07-11 02:16:00,74.6,71.0,30.08,SW,229,0.0,0.0,88,0.00,,,0.00,0,weatherlink.com 1.10,2014-07-11 06:16:00,
2014-07-11 02:31:00,74.4,71.0,30.08,SW,229,0.0,0.0,88,0.00,,,0.00,0,weatherlink.com 1.10,2014-07-11 06:31:00,
2014-07-11 02:46:00,74.3,71.0,30.08,SW,229,0.0,0.0,88,0.00,,,0.00,0,weatherlink.com 1.10,2014-07-11 06:46:00,
2014-07-11 03:01:00,74.2,71.0,30.07,SW,229,0.0,0.0,88,0.00,,,0.00,0,weatherlink.com 1.10,2014-07-11 07:01:00,
2014-07-11 03:16:00,74.3,71.0,30.07,SW,229,0.0,0.0,88,0.00,,,0.00,0,weatherlink.com 1.10,2014-07-11 07:16:00,
2014-07-11 03:31:00,74.3,71.0,30.07,SW,229,0.0,0.0,88,0.00,,,0.00,0,weatherlink.com 1.10,2014-07-11 07:31:00,
2014-07-11 03:46:00,74.3,71.0,30.07,SW,229,0.0,0.0,88,0.00,,,0.00,0,weatherlink.com 1.10,2014-07-11 07:46:00,
2014-07-11 04:01:00,74.5,71.0,30.07,SW,229,0.0,0.0,88,0.00,,,0.00,0,weatherlink.com 1.10,2014-07-11 08:01:00,
2014-07-11 04:16:00,74.7,71.0,30.07,SW,229,0.0,0.0,88,0.00,,,0.00,0,weatherlink.com 1.10,2014-07-11 08:16:00,
2014-07-11 04:31:00,74.6,71.0,30.07,SW,229,0.0,0.0,88,0.00,,,0.00,0,weatherlink.com 1.10,2014-07-11 08:31:00,
2014-07-11 04:46:00,74.4,71.0,30.07,SW,229,0.0,0.0,88,0.00,,,0.00,0,weatherlink.com 1.10,2014-07-11 08:46:00,
2014-07-11 05:01:00,74.6,71.0,30.07,SW,229,0.0,0.0,88,0.00,,,0.00,0,weatherlink.com 1.10,2014-07-11 09:01:00,
2014-07-11 05:16:00,74.9,72.0,30.07,SW,229,0.0,0.0,89,0.00,,,0.00,0,weatherlink.com 1.10,2014-07-11 09:16:00,
2014-07-11 05:31:00,74.8,71.0,30.07,SW,229,0.0,0.0,88,0.00,,,0.00,0,weatherlink.com 1.10,2014-07-11 09:31:00,
2014-07-11 05:46:00,74.4,71.0,30.07,SW,229,0.0,0.0,88,0.00,,,0.00,0,weatherlink.com 1.10,2014-07-11 09:46:00,
2014-07-11 06:01:00,74.4,71.0,30.07,SW,229,0.0,0.0,88,0.00,,,0.00,0,weatherlink.com 1.10,2014-07-11 10:01:00,
2014-07-11 06:16:00,74.3,71.0,30.07,SW,229,0.0,0.0,88,0.00,,,0.00,0,weatherlink.com 1.10,2014-07-11 10:16:00,
2014-07-11 06:31:00,74.3,71.0,30.07,SW,229,0.0,0.0,88,0.00,,,0.00,0,weatherlink.com 1.10,2014-07-11 10:31:00,
2014-07-11 06:46:00,74.1,71.0,30.07,SW,229,0.0,0.0,89,0.00,,,0.00,11,weatherlink.com 1.10,2014-07-11 10:46:00,
2014-07-11 07:01:00,74.4,71.0,30.08,SW,229,0.0,0.0,89,0.01,,,0.01,30,weatherlink.com 1.10,2014-07-11 11:01:00,
2014-07-11 07:16:00,75.0,72.0,30.08,SW,229,0.0,0.0,89,0.01,,,0.01,40,weatherlink.com 1.10,2014-07-11 11:16:00,
2014-07-11 07:31:00,76.7,73.0,30.09,SW,229,0.0,0.0,89,0.01,,,0.01,114,weatherlink.com 1.10,2014-07-11 11:31:00,
2014-07-11 07:46:00,77.6,74.0,30.09,ESE,113,0.0,3.0,88,0.01,,,0.01,46,weatherlink.com 1.10,2014-07-11 11:46:00,
2014-07-11 08:01:00,79.3,76.0,30.10,SE,138,0.0,2.0,88,0.00,,,0.01,206,weatherlink.com 1.10,2014-07-11 12:01:00,
2014-07-11 08:17:00,80.8,76.0,30.10,East,92,4.0,4.0,85,0.00,,,0.01,142,weatherlink.com 1.10,2014-07-11 12:17:00,
2014-07-11 08:32:00,82.9,77.0,30.11,East,88,0.0,3.0,82,0.00,,,0.01,330,weatherlink.com 1.10,2014-07-11 12:32:00,
2014-07-11 08:47:00,83.7,76.0,30.12,ENE,76,2.0,5.0,78,0.00,,,0.01,410,weatherlink.com 1.10,2014-07-11 12:47:00,
2014-07-11 09:02:00,83.0,76.0,30.12,ESE,103,1.0,2.0,79,0.00,,,0.01,404,weatherlink.com 1.10,2014-07-11 13:02:00,
2014-07-11 09:17:00,84.6,76.0,30.12,East,99,4.0,7.0,76,0.00,,,0.01,81,weatherlink.com 1.10,2014-07-11 13:17:00,
2014-07-11 09:32:00,85.1,77.0,30.12,East,90,3.0,7.0,76,0.00,,,0.01,613,weatherlink.com 1.10,2014-07-11 13:32:00,
2014-07-11 09:47:00,85.2,77.0,30.13,East,95,2.0,8.0,76,0.00,,,0.01,663,weatherlink.com 1.10,2014-07-11 13:47:00,
2014-07-11 10:02:00,85.1,76.0,30.13,East,100,2.0,8.0,75,0.00,,,0.01,779,weatherlink.com 1.10,2014-07-11 14:02:00,
2014-07-11 10:17:00,86.3,77.0,30.14,ENE,70,3.0,6.0,74,0.00,,,0.01,803,weatherlink.com 1.10,2014-07-11 14:17:00,
2014-07-11 10:32:00,85.5,77.0,30.14,SE,128,3.0,7.0,75,0.00,,,0.01,842,weatherlink.com 1.10,2014-07-11 14:32:00,
2014-07-11 10:47:00,85.3,77.0,30.14,NE,39,2.0,7.0,75,0.00,,,0.01,251,weatherlink.com 1.10,2014-07-11 14:47:00,
2014-07-11 11:02:00,85.6,77.0,30.14,ESE,111,4.0,9.0,76,0.00,,,0.01,209,weatherlink.com 1.10,2014-07-11 15:02:00,
2014-07-11 11:17:00,86.0,76.0,30.14,East,83,4.0,7.0,73,0.00,,,0.01,895,weatherlink.com 1.10,2014-07-11 15:17:00,
2014-07-11 11:32:00,86.1,77.0,30.14,ENE,71,5.0,11.0,75,0.00,,,0.01,956,weatherlink.com 1.10,2014-07-11 15:32:00,
2014-07-11 11:47:00,86.2,78.0,30.14,ESE,105,4.0,7.0,76,0.00,,,0.01,969,weatherlink.com 1.10,2014-07-11 15:47:00,
2014-07-11 12:02:00,86.3,77.0,30.14,East,95,6.0,10.0,74,0.00,,,0.01,1092,weatherlink.com 1.10,2014-07-11 16:02:00,
2014-07-11 12:17:00,86.1,77.0,30.13,ESE,105,3.0,10.0,74,0.00,,,0.01,490,weatherlink.com 1.10,2014-07-11 16:17:00,
2014-07-11 12:32:00,85.7,77.0,30.13,East,81,4.0,10.0,75,0.00,,,0.01,309,weatherlink.com 1.10,2014-07-11 16:32:00,
2014-07-11 12:47:00,86.7,78.0,30.12,East,96,6.0,8.0,75,0.00,,,0.01,1093,weatherlink.com 1.10,2014-07-11 16:47:00,
2014-07-11 13:02:00,86.8,77.0,30.11,East,82,3.0,10.0,72,0.00,,,0.01,1034,weatherlink.com 1.10,2014-07-11 17:02:00,
2014-07-11 13:17:00,86.1,77.0,30.11,East,83,5.0,9.0,74,0.00,,,0.01,316,weatherlink.com 1.10,2014-07-11 17:17:00,
2014-07-11 13:32:00,86.6,77.0,30.11,SE,141,2.0,10.0,73,0.00,,,0.01,1011,weatherlink.com 1.10,2014-07-11 17:32:00,
2014-07-11 13:47:00,86.6,77.0,30.11,NNE,30,3.0,10.0,73,0.00,,,0.01,251,weatherlink.com 1.10,2014-07-11 17:47:00,
2014-07-11 14:02:00,86.6,77.0,30.10,ESE,119,4.0,10.0,73,0.00,,,0.01,1023,weatherlink.com 1.10,2014-07-11 18:02:00,
2014-07-11 14:17:00,87.8,77.0,30.10,East,99,6.0,8.0,70,0.00,,,0.01,984,weatherlink.com 1.10,2014-07-11 18:17:00,
2014-07-11 14:32:00,87.1,77.0,30.09,ESE,113,4.0,9.0,71,0.00,,,0.01,958,weatherlink.com 1.10,2014-07-11 18:32:00,
2014-07-11 14:47:00,86.8,77.0,30.09,East,88,7.0,9.0,73,0.00,,,0.01,229,weatherlink.com 1.10,2014-07-11 18:47:00,
2014-07-11 15:02:00,87.6,78.0,30.09,East,92,4.0,9.0,72,0.00,,,0.01,979,weatherlink.com 1.10,2014-07-11 19:02:00,
2014-07-11 15:17:00,86.7,78.0,30.09,SE,126,4.0,9.0,74,0.00,,,0.01,1014,weatherlink.com 1.10,2014-07-11 19:17:00,
2014-07-11 15:32:00,87.0,77.0,30.09,SE,134,3.0,10.0,73,0.00,,,0.01,942,weatherlink.com 1.10,2014-07-11 19:32:00,
2014-07-11 15:47:00,86.3,76.0,30.08,East,88,3.0,10.0,71,0.00,,,0.01,805,weatherlink.com 1.10,2014-07-11 19:47:00,
2014-07-11 16:02:00,86.9,76.0,30.08,ESE,104,4.0,8.0,69,0.00,,,0.01,765,weatherlink.com 1.10,2014-07-11 20:02:00,
2014-07-11 16:17:00,87.3,75.0,30.08,SE,134,4.0,8.0,67,0.00,,,0.01,728,weatherlink.com 1.10,2014-07-11 20:17:00,
2014-07-11 16:32:00,87.5,76.0,30.08,SE,130,2.0,8.0,68,0.00,,,0.01,712,weatherlink.com 1.10,2014-07-11 20:32:00,
2014-07-11 16:47:00,87.0,76.0,30.08,ESE,105,3.0,10.0,69,0.00,,,0.01,661,weatherlink.com 1.10,2014-07-11 20:47:00,
2014-07-11 17:02:00,86.9,77.0,30.07,East,94,4.0,8.0,72,0.00,,,0.01,615,weatherlink.com 1.10,2014-07-11 21:02:00,
2014-07-11 17:18:00,86.4,77.0,30.07,East,89,4.0,9.0,73,0.00,,,0.01,105,weatherlink.com 1.10,2014-07-11 21:18:00,
2014-07-11 17:33:00,86.0,76.0,30.06,East,90,4.0,8.0,73,0.00,,,0.01,51,weatherlink.com 1.10,2014-07-11 21:33:00,
2014-07-11 17:48:00,86.4,77.0,30.06,East,95,2.0,8.0,73,0.00,,,0.01,54,weatherlink.com 1.10,2014-07-11 21:48:00,
2014-07-11 18:03:00,86.1,76.0,30.06,ESE,113,7.0,8.0,72,0.00,,,0.01,49,weatherlink.com 1.10,2014-07-11 22:03:00,
2014-07-11 18:18:00,85.7,77.0,30.06,East,90,3.0,8.0,74,0.00,,,0.01,127,weatherlink.com 1.10,2014-07-11 22:18:00,
2014-07-11 18:33:00,85.4,77.0,30.06,SE,134,2.0,8.0,75,0.00,,,0.01,49,weatherlink.com 1.10,2014-07-11 22:33:00,
2014-07-11 18:48:00,85.0,76.0,30.06,SE,134,2.0,10.0,74,0.00,,,0.01,39,weatherlink.com 1.10,2014-07-11 22:48:00,
2014-07-11 19:03:00,84.9,76.0,30.06,ESE,120,1.0,8.0,75,0.00,,,0.01,35,weatherlink.com 1.10,2014-07-11 23:03:00,
2014-07-11 19:18:00,84.7,76.0,30.07,ESE,108,3.0,8.0,75,0.00,,,0.01,32,weatherlink.com 1.10,2014-07-11 23:18:00,
2014-07-11 19:33:00,84.4,77.0,30.07,East,94,3.0,8.0,77,0.00,,,0.01,21,weatherlink.com 1.10,2014-07-11 23:33:00,